createdAt,value
2023-02-19T00:01:15.365Z,60.70
2023-02-19T00:03:42.467Z,60.70
2023-02-19T00:06:10.527Z,60.40
2023-02-19T00:08:38.090Z,60.50
2023-02-19T00:11:06.211Z,60.40
2023-02-19T00:13:36.693Z,60.70
2023-02-19T00:16:07.296Z,60.60
2023-02-19T00:18:33.972Z,60.70
2023-02-19T00:21:00.563Z,60.50
2023-02-19T00:23:27.990Z,60.40
2023-02-19T00:25:54.896Z,60.60
2023-02-19T00:28:21.985Z,60.90
2023-02-19T00:30:48.842Z,60.70
2023-02-19T00:33:15.847Z,60.70
2023-02-19T00:35:42.407Z,60.60
2023-02-19T00:38:08.970Z,60.50
2023-02-19T00:40:35.541Z,60.30
2023-02-19T00:43:02.093Z,60.10
2023-02-19T00:45:28.676Z,60.10
2023-02-19T00:47:55.252Z,60.40
2023-02-19T00:50:21.812Z,59.90
2023-02-19T00:52:48.432Z,60.10
2023-02-19T00:55:15.022Z,60.10
2023-02-19T00:57:41.592Z,59.80
2023-02-19T01:00:08.524Z,59.90
2023-02-19T01:02:35.080Z,59.80
2023-02-19T01:05:01.691Z,59.70
2023-02-19T01:07:28.346Z,59.80
2023-02-19T01:09:54.885Z,59.90
2023-02-19T01:12:21.532Z,59.90
2023-02-19T01:14:48.095Z,59.70
2023-02-19T01:17:14.641Z,59.90
2023-02-19T01:19:41.219Z,59.80
2023-02-19T01:22:07.795Z,59.90
2023-02-19T01:24:34.361Z,60.10
2023-02-19T01:27:00.919Z,60.10
2023-02-19T01:29:27.483Z,60.50
2023-02-19T01:31:54.208Z,60.10
2023-02-19T01:34:20.840Z,60.20
2023-02-19T01:36:47.564Z,60.10
2023-02-19T01:39:14.119Z,60.20
2023-02-19T01:41:41.151Z,60.20
2023-02-19T01:44:27.659Z,60.20
2023-02-19T01:46:57.507Z,60.20
2023-02-19T01:49:28.870Z,60.00
2023-02-19T01:52:04.445Z,60.00
2023-02-19T01:54:34.206Z,60.10
2023-02-19T01:57:02.081Z,60.20
2023-02-19T01:59:28.684Z,60.10
2023-02-19T02:01:55.626Z,59.90
2023-02-19T02:04:22.774Z,60.10
2023-02-19T02:06:51.182Z,59.80
2023-02-19T02:09:40.562Z,60.80
2023-02-19T02:12:07.291Z,60.10
2023-02-19T02:14:35.960Z,60.00
2023-02-19T02:17:21.379Z,60.00
2023-02-19T02:20:02.074Z,60.00
2023-02-19T02:22:41.664Z,59.90
2023-02-19T02:25:14.362Z,60.10
2023-02-19T02:28:01.217Z,60.30
2023-02-19T02:30:30.893Z,60.10
2023-02-19T02:33:01.532Z,60.10
2023-02-19T02:35:34.373Z,60.40
2023-02-19T02:38:03.107Z,60.10
2023-02-19T02:40:29.951Z,59.90
2023-02-19T02:42:57.558Z,59.80
2023-02-19T02:45:35.953Z,59.80
2023-02-19T02:48:06.804Z,59.50
2023-02-19T02:50:40.716Z,59.70
2023-02-19T02:53:37.118Z,59.50
2023-02-19T02:56:04.108Z,59.50
2023-02-19T02:58:31.355Z,59.40
2023-02-19T03:01:19.621Z,59.40
2023-02-19T03:03:48.052Z,59.30
2023-02-19T03:06:17.017Z,59.50
2023-02-19T03:08:46.728Z,59.80
2023-02-19T03:11:32.007Z,59.50
2023-02-19T03:14:23.274Z,59.50
2023-02-19T03:17:09.825Z,59.50
2023-02-19T03:19:38.638Z,59.50
2023-02-19T03:22:16.584Z,59.50
2023-02-19T03:25:04.115Z,59.50
2023-02-19T03:27:32.876Z,59.50
2023-02-19T03:30:02.541Z,59.40
2023-02-19T03:32:31.256Z,59.50
2023-02-19T03:35:10.128Z,59.50
2023-02-19T03:37:38.814Z,59.50
2023-02-19T03:40:05.851Z,59.70
2023-02-19T03:42:51.150Z,59.60
2023-02-19T03:45:26.551Z,59.50
2023-02-19T03:48:18.130Z,59.40
2023-02-19T03:50:51.283Z,59.40
2023-02-19T03:53:24.524Z,59.50
2023-02-19T03:56:08.178Z,59.60
2023-02-19T03:58:39.016Z,59.50
2023-02-19T04:01:11.138Z,59.50
2023-02-19T04:03:57.125Z,59.40
2023-02-19T04:06:26.093Z,59.40
2023-02-19T04:08:54.701Z,59.50
2023-02-19T04:11:22.383Z,59.50
2023-02-19T04:13:55.446Z,59.30
2023-02-19T04:16:26.335Z,59.30
2023-02-19T04:18:54.735Z,59.70
2023-02-19T04:21:22.309Z,59.30
2023-02-19T04:23:49.194Z,59.20
2023-02-19T04:26:16.454Z,59.20
2023-02-19T04:28:44.234Z,59.30
2023-02-19T04:31:11.194Z,59.20
2023-02-19T04:33:38.023Z,59.10
2023-02-19T04:36:04.909Z,59.00
2023-02-19T04:38:31.477Z,59.00
2023-02-19T04:40:58.083Z,59.00
2023-02-19T04:43:24.738Z,58.70
2023-02-19T04:45:51.546Z,58.80
2023-02-19T04:48:18.199Z,58.60
2023-02-19T04:50:44.768Z,58.60
2023-02-19T04:53:11.339Z,58.50
2023-02-19T04:55:38.687Z,58.50
2023-02-19T04:58:05.434Z,58.40
2023-02-19T05:00:33.842Z,58.30
2023-02-19T05:03:01.047Z,58.40
2023-02-19T05:05:27.763Z,58.40
2023-02-19T05:07:54.406Z,58.60
2023-02-19T05:10:20.967Z,58.20
2023-02-19T05:12:47.582Z,58.30
2023-02-19T05:15:14.209Z,58.30
2023-02-19T05:17:40.851Z,58.30
2023-02-19T05:20:07.842Z,58.30
2023-02-19T05:22:34.393Z,58.30
2023-02-19T05:25:00.997Z,58.10
2023-02-19T05:27:27.585Z,58.10
2023-02-19T05:29:54.142Z,58.10
2023-02-19T05:32:20.772Z,58.40
2023-02-19T05:34:47.356Z,58.20
2023-02-19T05:37:13.920Z,58.30
2023-02-19T05:39:40.499Z,58.00
2023-02-19T05:42:07.072Z,57.90
2023-02-19T05:44:33.629Z,57.90
2023-02-19T05:47:00.202Z,58.00
2023-02-19T05:49:27.865Z,58.00
2023-02-19T05:51:54.486Z,57.80
2023-02-19T05:54:21.033Z,57.80
2023-02-19T05:56:47.672Z,57.80
2023-02-19T05:59:18.794Z,57.70
2023-02-19T06:01:45.865Z,57.70
2023-02-19T06:04:12.912Z,57.60
2023-02-19T06:06:40.161Z,58.10
2023-02-19T06:09:07.347Z,57.70
2023-02-19T06:11:33.953Z,57.60
2023-02-19T06:14:00.759Z,58.00
2023-02-19T06:16:27.506Z,57.60
2023-02-19T06:18:54.159Z,57.40
2023-02-19T06:21:20.789Z,57.60
2023-02-19T06:23:47.407Z,57.30
2023-02-19T06:26:16.112Z,57.40
2023-02-19T06:28:42.792Z,57.40
2023-02-19T06:31:10.771Z,57.40
2023-02-19T06:33:40.486Z,57.40
2023-02-19T06:36:08.261Z,57.40
2023-02-19T06:38:34.859Z,57.40
2023-02-19T06:41:02.121Z,57.20
2023-02-19T06:43:28.816Z,57.30
2023-02-19T06:45:58.011Z,57.10
2023-02-19T06:48:25.233Z,57.20
2023-02-19T06:50:51.779Z,57.00
2023-02-19T06:53:18.347Z,57.00
2023-02-19T06:55:45.054Z,57.20
2023-02-19T06:58:11.741Z,57.10
2023-02-19T07:00:38.356Z,57.00
2023-02-19T07:03:05.642Z,57.00
2023-02-19T07:05:32.255Z,56.80
2023-02-19T07:07:58.818Z,56.80
2023-02-19T07:10:25.405Z,57.00
2023-02-19T07:12:51.963Z,56.90
2023-02-19T07:15:18.539Z,56.70
2023-02-19T07:17:45.138Z,57.00
2023-02-19T07:20:11.936Z,57.00
2023-02-19T07:22:38.479Z,56.80
2023-02-19T07:25:05.150Z,57.00
2023-02-19T07:27:31.720Z,57.00
2023-02-19T07:29:59.144Z,56.80
2023-02-19T07:32:25.738Z,57.00
2023-02-19T07:34:52.368Z,57.00
2023-02-19T07:37:18.995Z,57.20
2023-02-19T07:39:45.555Z,57.10
2023-02-19T07:42:12.109Z,56.70
2023-02-19T07:44:38.691Z,57.30
2023-02-19T07:47:05.265Z,57.20
2023-02-19T07:49:32.974Z,57.10
2023-02-19T07:51:59.508Z,57.30
2023-02-19T07:54:26.103Z,57.00
2023-02-19T07:56:52.675Z,57.00
2023-02-19T07:59:21.541Z,56.80
2023-02-19T08:02:06.917Z,56.80
2023-02-19T08:04:33.522Z,56.70
2023-02-19T08:07:00.043Z,57.00
2023-02-19T08:09:26.612Z,56.30
2023-02-19T08:12:12.073Z,56.40
2023-02-19T08:14:38.636Z,56.60
2023-02-19T08:17:05.388Z,56.30
2023-02-19T08:19:31.977Z,56.40
2023-02-19T08:21:58.547Z,56.20
2023-02-19T08:24:25.109Z,56.70
2023-02-19T08:26:51.769Z,56.90
2023-02-19T08:29:18.373Z,55.90
2023-02-19T08:31:45.145Z,56.20
2023-02-19T08:34:11.753Z,56.00
2023-02-19T08:36:38.320Z,56.10
2023-02-19T08:39:04.923Z,56.20
2023-02-19T08:41:31.497Z,56.40
2023-02-19T08:43:58.084Z,56.40
2023-02-19T08:46:24.767Z,56.60
2023-02-19T08:48:52.098Z,56.60
2023-02-19T08:51:18.778Z,56.60
2023-02-19T08:53:45.948Z,56.60
2023-02-19T08:56:13.996Z,56.60
2023-02-19T08:58:40.893Z,56.60
2023-02-19T09:01:08.487Z,56.60
2023-02-19T09:03:37.165Z,56.80
2023-02-19T09:06:03.877Z,56.80
2023-02-19T09:08:30.444Z,57.00
2023-02-19T09:10:57.893Z,57.10
2023-02-19T09:13:24.478Z,57.20
2023-02-19T09:15:51.083Z,57.30
2023-02-19T09:18:17.743Z,57.50
2023-02-19T09:20:44.322Z,57.40
2023-02-19T09:23:11.163Z,57.50
2023-02-19T09:25:37.734Z,57.20
2023-02-19T09:28:04.387Z,57.20
2023-02-19T09:30:30.952Z,57.00
2023-02-19T09:32:57.698Z,56.90
2023-02-19T09:35:24.477Z,57.30
2023-02-19T09:37:51.022Z,56.90
2023-02-19T09:40:21.567Z,57.10
2023-02-19T09:42:50.311Z,57.00
2023-02-19T09:45:20.938Z,56.80
2023-02-19T09:47:47.796Z,56.50
2023-02-19T09:50:16.664Z,56.70
2023-02-19T09:52:47.144Z,56.50
2023-02-19T09:55:19.983Z,56.30
2023-02-19T09:57:46.977Z,56.20
2023-02-19T10:00:19.942Z,56.10
2023-02-19T10:02:46.614Z,56.40
2023-02-19T10:05:14.389Z,56.10
2023-02-19T10:07:45.421Z,56.00
2023-02-19T10:10:14.766Z,56.00
2023-02-19T10:12:45.684Z,56.30
2023-02-19T10:15:16.828Z,56.40
2023-02-19T10:17:43.398Z,56.50
2023-02-19T10:20:14.676Z,56.50
2023-02-19T10:22:41.295Z,56.40
2023-02-19T10:25:08.111Z,56.50
2023-02-19T10:27:34.715Z,56.40
2023-02-19T10:30:01.549Z,56.30
2023-02-19T10:32:29.486Z,56.30
2023-02-19T10:35:13.244Z,56.50
2023-02-19T10:37:49.205Z,56.50
2023-02-19T10:40:20.138Z,56.60
2023-02-19T10:42:51.982Z,56.80
2023-02-19T10:45:19.642Z,56.60
2023-02-19T10:47:46.861Z,57.00
2023-02-19T10:50:45.750Z,56.80
2023-02-19T10:53:23.508Z,56.50
2023-02-19T10:56:05.444Z,56.40
2023-02-19T10:58:34.406Z,56.60
2023-02-19T11:01:15.136Z,56.80
2023-02-19T11:03:42.525Z,56.50
2023-02-19T11:06:10.381Z,56.60
2023-02-19T11:08:45.841Z,56.50
2023-02-19T11:11:23.284Z,56.40
2023-02-19T11:13:50.070Z,56.20
2023-02-19T11:16:16.738Z,56.20
2023-02-19T11:18:45.089Z,56.20
2023-02-19T11:21:32.858Z,56.20
2023-02-19T11:24:01.482Z,56.30
2023-02-19T11:26:29.383Z,56.40
2023-02-19T11:28:59.924Z,58.50
2023-02-19T11:31:28.292Z,57.80
2023-02-19T11:33:56.719Z,57.50
2023-02-19T11:36:23.281Z,56.60
2023-02-19T11:38:49.832Z,56.40
2023-02-19T11:41:19.424Z,56.10
2023-02-19T11:43:52.065Z,55.70
2023-02-19T11:46:34.029Z,55.80
2023-02-19T11:49:15.692Z,55.90
2023-02-19T11:51:52.821Z,55.90
2023-02-19T11:54:38.183Z,55.90
2023-02-19T11:57:04.750Z,55.90
2023-02-19T11:59:39.937Z,56.10
2023-02-19T12:02:16.986Z,56.10
2023-02-19T12:04:57.685Z,56.20
2023-02-19T12:07:33.508Z,56.00
2023-02-19T12:10:06.198Z,56.00
2023-02-19T12:12:52.257Z,56.00
2023-02-19T12:15:24.439Z,56.00
2023-02-19T12:18:10.085Z,55.90
2023-02-19T12:20:55.779Z,55.90
2023-02-19T12:23:25.385Z,55.80
2023-02-19T12:26:03.315Z,56.00
2023-02-19T12:28:51.442Z,55.70
2023-02-19T12:31:36.642Z,55.70
2023-02-19T12:34:09.521Z,55.70
2023-02-19T12:36:59.534Z,56.00
2023-02-19T12:39:32.421Z,56.00
2023-02-19T12:42:08.511Z,55.80
2023-02-19T12:44:41.380Z,55.70
2023-02-19T12:47:08.766Z,55.70
2023-02-19T12:49:40.580Z,55.50
2023-02-19T12:52:08.117Z,55.40
2023-02-19T12:54:41.873Z,56.60
2023-02-19T12:57:22.870Z,55.50
2023-02-19T13:00:02.998Z,55.80
2023-02-19T13:02:29.584Z,56.10
2023-02-19T13:05:05.060Z,55.80
2023-02-19T13:07:36.980Z,56.10
2023-02-19T13:10:17.792Z,56.10
2023-02-19T13:12:45.546Z,55.90
2023-02-19T13:15:35.273Z,55.70
2023-02-19T13:18:03.250Z,55.40
2023-02-19T13:20:32.294Z,55.20
2023-02-19T13:23:20.657Z,54.80
2023-02-19T13:25:59.742Z,55.20
2023-02-19T13:28:38.429Z,55.00
2023-02-19T13:31:08.267Z,55.10
2023-02-19T13:33:43.084Z,54.60
2023-02-19T13:36:18.927Z,55.50
2023-02-19T13:38:47.019Z,55.30
2023-02-19T13:41:21.562Z,54.80
2023-02-19T13:43:54.100Z,54.80
2023-02-19T13:46:20.785Z,54.90
2023-02-19T13:48:47.473Z,55.10
2023-02-19T13:51:14.032Z,54.90
2023-02-19T13:53:48.070Z,55.00
2023-02-19T13:56:29.764Z,54.80
2023-02-19T13:59:01.432Z,54.90
2023-02-19T14:01:46.955Z,54.40
2023-02-19T14:04:32.460Z,54.60
2023-02-19T14:07:02.207Z,54.20
2023-02-19T14:09:44.200Z,54.20
2023-02-19T14:12:10.932Z,55.00
2023-02-19T14:14:37.659Z,54.20
2023-02-19T14:17:23.102Z,54.40
2023-02-19T14:19:55.577Z,54.60
2023-02-19T14:22:41.195Z,54.60
2023-02-19T14:25:18.710Z,54.70
2023-02-19T14:27:45.364Z,54.60
2023-02-19T14:30:13.487Z,54.60
2023-02-19T14:32:43.354Z,54.80
2023-02-19T14:35:20.262Z,54.30
2023-02-19T14:37:48.023Z,54.20
2023-02-19T14:40:20.406Z,54.40
2023-02-19T14:42:47.905Z,54.80
2023-02-19T14:45:15.166Z,54.50
2023-02-19T14:47:42.083Z,54.40
2023-02-19T14:50:12.980Z,55.00
2023-02-19T14:52:43.445Z,55.00
2023-02-19T14:55:15.353Z,54.80
2023-02-19T14:57:43.930Z,54.60
2023-02-19T15:00:22.444Z,54.30
2023-02-19T15:02:50.435Z,53.90
2023-02-19T15:05:27.791Z,54.00
2023-02-19T15:07:55.599Z,53.80
2023-02-19T15:10:22.385Z,53.70
2023-02-19T15:12:53.552Z,53.50
2023-02-19T15:15:24.033Z,53.80
2023-02-19T15:17:51.450Z,54.10
2023-02-19T15:20:19.546Z,54.40
2023-02-19T15:22:46.572Z,54.50
2023-02-19T15:25:20.758Z,54.00
2023-02-19T15:27:47.383Z,53.90
2023-02-19T15:30:22.343Z,54.10
2023-02-19T15:32:52.657Z,54.40
2023-02-19T15:35:20.010Z,54.00
2023-02-19T15:37:46.614Z,54.20
2023-02-19T15:40:13.890Z,54.00
2023-02-19T15:42:41.348Z,54.30
2023-02-19T15:45:37.140Z,54.20
2023-02-19T15:48:15.994Z,54.00
2023-02-19T15:50:46.121Z,54.20
2023-02-19T15:53:17.575Z,54.00
2023-02-19T15:56:02.438Z,54.00
2023-02-19T15:58:38.220Z,54.40
2023-02-19T16:01:08.154Z,54.20
2023-02-19T16:03:35.288Z,54.20
2023-02-19T16:06:01.875Z,54.00
2023-02-19T16:08:38.815Z,54.40
2023-02-19T16:11:06.905Z,54.00
2023-02-19T16:13:34.436Z,53.60
2023-02-19T16:16:03.797Z,53.30
2023-02-19T16:18:30.665Z,53.40
2023-02-19T16:20:57.519Z,53.10
2023-02-19T16:23:25.530Z,53.40
2023-02-19T16:25:57.564Z,53.90
2023-02-19T16:28:25.185Z,54.00
2023-02-19T16:31:02.451Z,53.50
2023-02-19T16:33:41.257Z,53.60
2023-02-19T16:36:17.166Z,53.40
2023-02-19T16:39:02.542Z,53.30
2023-02-19T16:41:29.209Z,53.40
2023-02-19T16:43:55.752Z,53.60
2023-02-19T16:46:22.359Z,53.10
2023-02-19T16:48:48.978Z,53.60
2023-02-19T16:51:19.346Z,53.90
2023-02-19T16:53:45.902Z,53.70
2023-02-19T16:56:18.406Z,53.00
2023-02-19T16:58:45.007Z,53.50
2023-02-19T17:01:12.159Z,53.30
2023-02-19T17:03:39.423Z,52.60
2023-02-19T17:06:06.286Z,52.40
2023-02-19T17:08:34.383Z,51.70
2023-02-19T17:11:02.224Z,51.70
2023-02-19T17:13:29.433Z,51.80
2023-02-19T17:15:56.278Z,51.70
2023-02-19T17:18:23.067Z,52.40
2023-02-19T17:20:51.728Z,52.90
2023-02-19T17:23:18.416Z,53.70
2023-02-19T17:25:45.010Z,53.80
2023-02-19T17:28:11.737Z,53.90
2023-02-19T17:30:40.005Z,55.30
2023-02-19T17:33:07.063Z,55.30
2023-02-19T17:35:34.188Z,55.20
2023-02-19T17:38:00.776Z,55.50
2023-02-19T17:40:33.243Z,55.60
2023-02-19T17:43:00.646Z,56.50
2023-02-19T17:45:27.228Z,56.30
2023-02-19T17:47:53.780Z,56.80
2023-02-19T17:50:21.961Z,56.70
2023-02-19T17:52:48.519Z,56.40
2023-02-19T17:55:18.272Z,57.70
2023-02-19T17:57:45.387Z,57.30
2023-02-19T18:00:16.543Z,56.70
2023-02-19T18:02:43.164Z,56.30
2023-02-19T18:05:09.765Z,55.80
2023-02-19T18:07:36.542Z,54.00
2023-02-19T18:10:03.606Z,53.70
2023-02-19T18:12:30.208Z,54.00
2023-02-19T18:14:57.266Z,54.00
2023-02-19T18:17:24.533Z,54.00
2023-02-19T18:19:51.719Z,54.60
2023-02-19T18:22:18.489Z,54.60
2023-02-19T18:24:46.363Z,56.10
2023-02-19T18:27:13.399Z,55.10
2023-02-19T18:29:39.972Z,55.30
2023-02-19T18:32:06.725Z,55.20
2023-02-19T18:34:33.335Z,55.20
2023-02-19T18:37:00.016Z,54.40
2023-02-19T18:39:26.593Z,53.80
2023-02-19T18:41:53.215Z,55.00
2023-02-19T18:44:23.843Z,53.20
2023-02-19T18:46:50.950Z,54.60
2023-02-19T18:49:17.889Z,55.40
2023-02-19T18:51:44.544Z,59.10
2023-02-19T18:54:11.089Z,58.20
2023-02-19T18:56:42.035Z,58.70
2023-02-19T18:59:08.682Z,57.40
2023-02-19T19:01:35.300Z,56.40
2023-02-19T19:04:01.970Z,56.50
2023-02-19T19:06:28.747Z,56.50
2023-02-19T19:08:55.409Z,55.60
2023-02-19T19:11:22.640Z,54.60
2023-02-19T19:13:49.248Z,55.40
2023-02-19T19:16:15.813Z,56.30
2023-02-19T19:18:42.722Z,55.50
2023-02-19T19:21:09.775Z,55.50
2023-02-19T19:23:36.663Z,56.60
2023-02-19T19:26:06.526Z,58.70
2023-02-19T19:28:33.130Z,58.30
2023-02-19T19:30:59.994Z,58.00
2023-02-19T19:33:28.014Z,58.20
2023-02-19T19:35:55.028Z,57.80
2023-02-19T19:38:21.759Z,57.50
2023-02-19T19:40:48.335Z,59.30
2023-02-19T19:43:15.083Z,57.70
2023-02-19T19:45:41.702Z,57.20
2023-02-19T19:48:08.350Z,57.90
2023-02-19T19:50:34.995Z,57.40
2023-02-19T19:53:01.667Z,58.10
2023-02-19T19:55:28.307Z,58.60
2023-02-19T19:57:55.238Z,58.90
2023-02-19T20:00:23.525Z,57.80
2023-02-19T20:02:50.320Z,59.10
2023-02-19T20:05:17.585Z,56.30
2023-02-19T20:07:44.597Z,56.80
2023-02-19T20:10:13.034Z,57.90
2023-02-19T20:12:40.709Z,58.00
2023-02-19T20:15:08.027Z,57.90
2023-02-19T20:17:34.744Z,57.00
2023-02-19T20:20:01.424Z,57.90
2023-02-19T20:22:28.182Z,58.10
2023-02-19T20:24:54.859Z,57.20
2023-02-19T20:27:21.870Z,56.80
2023-02-19T20:29:48.527Z,57.30
2023-02-19T20:32:18.533Z,57.20
2023-02-19T20:34:45.787Z,55.90
2023-02-19T20:37:12.504Z,56.60
2023-02-19T20:39:39.069Z,56.90
2023-02-19T20:42:06.275Z,56.70
2023-02-19T20:44:34.063Z,56.30
2023-02-19T20:47:01.209Z,56.50
2023-02-19T20:49:28.928Z,56.40
2023-02-19T20:51:59.803Z,55.80
2023-02-19T20:54:28.055Z,55.90
2023-02-19T20:56:56.282Z,55.70
2023-02-19T20:59:24.053Z,55.60
2023-02-19T21:01:50.803Z,56.80
2023-02-19T21:04:19.069Z,56.90
2023-02-19T21:06:45.882Z,57.00
2023-02-19T21:09:12.838Z,56.10
2023-02-19T21:11:39.644Z,55.80
2023-02-19T21:14:06.287Z,56.40
2023-02-19T21:16:33.115Z,55.70
2023-02-19T21:18:59.813Z,56.50
2023-02-19T21:21:26.742Z,56.50
2023-02-19T21:23:53.902Z,56.50
2023-02-19T21:26:20.903Z,58.50
2023-02-19T21:28:47.556Z,57.50
2023-02-19T21:31:14.273Z,57.50
2023-02-19T21:33:40.935Z,58.80
2023-02-19T21:36:07.805Z,56.50
2023-02-19T21:38:34.453Z,56.50
2023-02-19T21:41:01.070Z,56.20
2023-02-19T21:43:30.900Z,56.30
2023-02-19T21:45:57.738Z,56.30
2023-02-19T21:48:24.483Z,55.40
2023-02-19T21:50:51.082Z,55.90
2023-02-19T21:53:17.745Z,54.80
2023-02-19T21:55:56.625Z,56.10
2023-02-19T21:58:25.500Z,54.50
2023-02-19T22:00:53.889Z,55.10
2023-02-19T22:03:20.595Z,54.90
2023-02-19T22:05:47.199Z,54.50
2023-02-19T22:08:15.686Z,54.20
2023-02-19T22:10:42.581Z,53.70
2023-02-19T22:13:09.906Z,54.70
2023-02-19T22:15:36.793Z,54.60
2023-02-19T22:18:03.526Z,54.20
2023-02-19T22:20:30.281Z,54.50
2023-02-19T22:22:56.885Z,54.30
2023-02-19T22:25:23.492Z,54.50
2023-02-19T22:27:50.100Z,54.10
2023-02-19T22:30:16.934Z,54.60
2023-02-19T22:32:43.583Z,54.60
2023-02-19T22:35:11.438Z,54.10
2023-02-19T22:37:38.054Z,54.50
2023-02-19T22:40:04.879Z,54.20
2023-02-19T22:42:31.500Z,53.90
2023-02-19T22:44:58.204Z,53.70
2023-02-19T22:47:24.854Z,53.20
2023-02-19T22:49:51.603Z,53.50
2023-02-19T22:52:18.218Z,53.70
2023-02-19T22:54:44.979Z,53.30
2023-02-19T22:57:11.571Z,53.70
2023-02-19T22:59:38.173Z,54.50
2023-02-19T23:02:04.838Z,54.90
2023-02-19T23:04:31.686Z,54.70
2023-02-19T23:06:58.351Z,55.80
2023-02-19T23:09:26.581Z,56.20
2023-02-19T23:11:53.907Z,54.70
2023-02-19T23:14:21.150Z,55.40
2023-02-19T23:16:47.805Z,55.10
2023-02-19T23:19:15.715Z,54.60
2023-02-19T23:21:43.348Z,53.90
2023-02-19T23:24:10.294Z,54.70
2023-02-19T23:26:41.414Z,54.50
2023-02-19T23:29:08.003Z,53.80
2023-02-19T23:31:34.814Z,53.70
2023-02-19T23:34:01.654Z,53.80
2023-02-19T23:36:28.249Z,53.60
2023-02-19T23:38:54.781Z,54.20
2023-02-19T23:41:21.358Z,54.50
2023-02-19T23:43:48.023Z,53.70
2023-02-19T23:46:17.263Z,53.60
2023-02-19T23:48:44.590Z,54.40
2023-02-19T23:51:11.371Z,53.80
2023-02-19T23:53:37.995Z,53.60
2023-02-19T23:56:04.935Z,53.20
2023-02-19T23:58:31.510Z,53.60
